sensor_id;sensor_type;location;lat;lon;timestamp;P1;durP1;ratioP1;P2;durP2;ratioP2
39524;SDS011;25203;50.754;6.978;2023-06-22T00:01:34;8.13;;;5.15;;
39524;SDS011;25203;50.754;6.978;2023-06-22T00:03:35;7.93;;;5.18;;
39524;SDS011;25203;50.754;6.978;2023-06-22T00:05:35;10.20;;;5.00;;
39524;SDS011;25203;50.754;6.978;2023-06-22T00:07:37;8.75;;;5.55;;
39524;SDS011;25203;50.754;6.978;2023-06-22T00:09:37;8.18;;;5.78;;
39524;SDS011;25203;50.754;6.978;2023-06-22T00:11:38;12.60;;;6.15;;
39524;SDS011;25203;50.754;6.978;2023-06-22T00:13:39;9.32;;;5.35;;
39524;SDS011;25203;50.754;6.978;2023-06-22T00:15:40;8.60;;;5.45;;
39524;SDS011;25203;50.754;6.978;2023-06-22T00:17:41;5.43;;;4.85;;
39524;SDS011;25203;50.754;6.978;2023-06-22T00:19:42;12.00;;;6.18;;
39524;SDS011;25203;50.754;6.978;2023-06-22T00:21:42;9.57;;;5.72;;
39524;SDS011;25203;50.754;6.978;2023-06-22T00:23:46;8.70;;;5.75;;
39524;SDS011;25203;50.754;6.978;2023-06-22T00:25:47;8.98;;;5.85;;
39524;SDS011;25203;50.754;6.978;2023-06-22T00:27:48;10.10;;;5.88;;
39524;SDS011;25203;50.754;6.978;2023-06-22T00:29:49;14.90;;;5.10;;
39524;SDS011;25203;50.754;6.978;2023-06-22T00:31:49;9.00;;;5.20;;
39524;SDS011;25203;50.754;6.978;2023-06-22T00:33:50;8.25;;;5.43;;
39524;SDS011;25203;50.754;6.978;2023-06-22T00:35:51;8.10;;;6.10;;
39524;SDS011;25203;50.754;6.978;2023-06-22T00:37:52;10.52;;;6.43;;
39524;SDS011;25203;50.754;6.978;2023-06-22T00:39:53;12.48;;;6.35;;
39524;SDS011;25203;50.754;6.978;2023-06-22T00:41:54;12.68;;;6.13;;
39524;SDS011;25203;50.754;6.978;2023-06-22T00:43:56;9.50;;;6.22;;
39524;SDS011;25203;50.754;6.978;2023-06-22T00:45:57;9.40;;;6.50;;
39524;SDS011;25203;50.754;6.978;2023-06-22T00:47:58;11.65;;;5.80;;
39524;SDS011;25203;50.754;6.978;2023-06-22T00:49:59;12.50;;;6.13;;
39524;SDS011;25203;50.754;6.978;2023-06-22T00:52:00;11.20;;;6.00;;
39524;SDS011;25203;50.754;6.978;2023-06-22T00:54:01;13.90;;;5.68;;
39524;SDS011;25203;50.754;6.978;2023-06-22T00:56:01;13.25;;;6.32;;
39524;SDS011;25203;50.754;6.978;2023-06-22T00:58:03;17.63;;;7.47;;
39524;SDS011;25203;50.754;6.978;2023-06-22T01:00:08;12.27;;;6.95;;
39524;SDS011;25203;50.754;6.978;2023-06-22T01:02:11;10.35;;;5.82;;
39524;SDS011;25203;50.754;6.978;2023-06-22T01:04:12;14.40;;;6.70;;
39524;SDS011;25203;50.754;6.978;2023-06-22T01:06:15;15.35;;;8.02;;
39524;SDS011;25203;50.754;6.978;2023-06-22T01:10:41;8.02;;;6.35;;
39524;SDS011;25203;50.754;6.978;2023-06-22T01:12:55;7.45;;;6.68;;
39524;SDS011;25203;50.754;6.978;2023-06-22T01:15:11;10.45;;;6.80;;
39524;SDS011;25203;50.754;6.978;2023-06-22T01:17:19;10.63;;;6.82;;
39524;SDS011;25203;50.754;6.978;2023-06-22T01:20:05;12.60;;;6.95;;
39524;SDS011;25203;50.754;6.978;2023-06-22T01:21:46;11.63;;;6.72;;
39524;SDS011;25203;50.754;6.978;2023-06-22T01:30:47;10.35;;;6.53;;
39524;SDS011;25203;50.754;6.978;2023-06-22T01:33:03;8.18;;;6.97;;
39524;SDS011;25203;50.754;6.978;2023-06-22T01:35:06;10.85;;;6.95;;
39524;SDS011;25203;50.754;6.978;2023-06-22T01:37:08;8.30;;;5.88;;
39524;SDS011;25203;50.754;6.978;2023-06-22T01:39:09;12.60;;;6.65;;
39524;SDS011;25203;50.754;6.978;2023-06-22T01:41:11;13.63;;;6.53;;
39524;SDS011;25203;50.754;6.978;2023-06-22T01:43:13;10.80;;;6.18;;
39524;SDS011;25203;50.754;6.978;2023-06-22T01:45:14;16.58;;;6.32;;
39524;SDS011;25203;50.754;6.978;2023-06-22T01:47:15;8.82;;;6.50;;
39524;SDS011;25203;50.754;6.978;2023-06-22T01:49:17;10.82;;;6.80;;
39524;SDS011;25203;50.754;6.978;2023-06-22T01:51:18;13.70;;;6.50;;
39524;SDS011;25203;50.754;6.978;2023-06-22T01:53:22;9.70;;;6.70;;
39524;SDS011;25203;50.754;6.978;2023-06-22T01:55:23;6.25;;;5.65;;
39524;SDS011;25203;50.754;6.978;2023-06-22T01:57:24;7.25;;;6.57;;
39524;SDS011;25203;50.754;6.978;2023-06-22T01:59:39;9.60;;;7.57;;
39524;SDS011;25203;50.754;6.978;2023-06-22T02:02:01;14.20;;;7.82;;
39524;SDS011;25203;50.754;6.978;2023-06-22T02:04:06;10.65;;;6.90;;
39524;SDS011;25203;50.754;6.978;2023-06-22T02:06:14;16.20;;;7.28;;
39524;SDS011;25203;50.754;6.978;2023-06-22T02:08:24;14.52;;;7.65;;
39524;SDS011;25203;50.754;6.978;2023-06-22T02:10:29;12.63;;;6.57;;
39524;SDS011;25203;50.754;6.978;2023-06-22T02:12:31;11.07;;;6.80;;
39524;SDS011;25203;50.754;6.978;2023-06-22T02:14:34;9.13;;;8.15;;
39524;SDS011;25203;50.754;6.978;2023-06-22T02:16:36;10.80;;;7.65;;
39524;SDS011;25203;50.754;6.978;2023-06-22T02:18:37;12.85;;;8.25;;
39524;SDS011;25203;50.754;6.978;2023-06-22T02:20:40;14.30;;;7.20;;
39524;SDS011;25203;50.754;6.978;2023-06-22T02:22:40;20.35;;;8.00;;
39524;SDS011;25203;50.754;6.978;2023-06-22T02:24:42;13.65;;;7.65;;
39524;SDS011;25203;50.754;6.978;2023-06-22T02:26:43;13.63;;;7.60;;
39524;SDS011;25203;50.754;6.978;2023-06-22T02:28:45;16.35;;;7.53;;
39524;SDS011;25203;50.754;6.978;2023-06-22T02:30:46;13.15;;;7.93;;
39524;SDS011;25203;50.754;6.978;2023-06-22T02:32:46;15.50;;;7.88;;
39524;SDS011;25203;50.754;6.978;2023-06-22T02:34:47;10.57;;;7.93;;
39524;SDS011;25203;50.754;6.978;2023-06-22T02:36:48;17.33;;;8.52;;
39524;SDS011;25203;50.754;6.978;2023-06-22T02:38:52;9.15;;;7.78;;
39524;SDS011;25203;50.754;6.978;2023-06-22T02:40:54;9.57;;;6.78;;
39524;SDS011;25203;50.754;6.978;2023-06-22T02:42:54;9.32;;;7.50;;
39524;SDS011;25203;50.754;6.978;2023-06-22T02:44:58;11.63;;;7.88;;
39524;SDS011;25203;50.754;6.978;2023-06-22T02:46:58;9.98;;;8.32;;
39524;SDS011;25203;50.754;6.978;2023-06-22T02:48:59;12.77;;;9.02;;
39524;SDS011;25203;50.754;6.978;2023-06-22T02:50:59;10.68;;;8.18;;
39524;SDS011;25203;50.754;6.978;2023-06-22T02:53:00;14.88;;;7.90;;
39524;SDS011;25203;50.754;6.978;2023-06-22T02:55:01;11.90;;;8.30;;
39524;SDS011;25203;50.754;6.978;2023-06-22T02:57:01;10.43;;;8.18;;
39524;SDS011;25203;50.754;6.978;2023-06-22T02:59:02;11.32;;;8.75;;
39524;SDS011;25203;50.754;6.978;2023-06-22T03:01:04;14.70;;;9.20;;
39524;SDS011;25203;50.754;6.978;2023-06-22T03:03:07;17.30;;;9.93;;
39524;SDS011;25203;50.754;6.978;2023-06-22T03:05:08;14.38;;;9.90;;
39524;SDS011;25203;50.754;6.978;2023-06-22T03:07:14;18.10;;;10.00;;
39524;SDS011;25203;50.754;6.978;2023-06-22T03:09:17;21.27;;;9.18;;
39524;SDS011;25203;50.754;6.978;2023-06-22T03:11:17;16.08;;;9.32;;
39524;SDS011;25203;50.754;6.978;2023-06-22T03:13:18;17.25;;;10.23;;
39524;SDS011;25203;50.754;6.978;2023-06-22T03:15:19;13.90;;;10.23;;
39524;SDS011;25203;50.754;6.978;2023-06-22T03:17:19;13.13;;;9.85;;
39524;SDS011;25203;50.754;6.978;2023-06-22T03:19:20;13.55;;;9.55;;
39524;SDS011;25203;50.754;6.978;2023-06-22T03:21:22;26.60;;;10.30;;
39524;SDS011;25203;50.754;6.978;2023-06-22T03:23:23;17.00;;;9.93;;
39524;SDS011;25203;50.754;6.978;2023-06-22T03:25:24;14.38;;;9.98;;
39524;SDS011;25203;50.754;6.978;2023-06-22T03:27:24;16.50;;;10.75;;
39524;SDS011;25203;50.754;6.978;2023-06-22T03:29:25;12.75;;;9.82;;
39524;SDS011;25203;50.754;6.978;2023-06-22T03:31:25;14.88;;;10.07;;
39524;SDS011;25203;50.754;6.978;2023-06-22T03:33:26;16.60;;;10.25;;
39524;SDS011;25203;50.754;6.978;2023-06-22T03:35:27;18.73;;;10.90;;
39524;SDS011;25203;50.754;6.978;2023-06-22T03:37:28;16.30;;;10.95;;
39524;SDS011;25203;50.754;6.978;2023-06-22T03:39:29;13.10;;;9.82;;
39524;SDS011;25203;50.754;6.978;2023-06-22T03:41:29;13.55;;;9.90;;
39524;SDS011;25203;50.754;6.978;2023-06-22T03:43:30;17.35;;;11.00;;
39524;SDS011;25203;50.754;6.978;2023-06-22T03:45:30;11.85;;;9.93;;
39524;SDS011;25203;50.754;6.978;2023-06-22T03:47:31;13.98;;;9.88;;
39524;SDS011;25203;50.754;6.978;2023-06-22T03:49:33;11.85;;;9.82;;
39524;SDS011;25203;50.754;6.978;2023-06-22T03:51:34;18.30;;;9.50;;
39524;SDS011;25203;50.754;6.978;2023-06-22T03:53:34;13.75;;;9.80;;
39524;SDS011;25203;50.754;6.978;2023-06-22T03:55:35;11.00;;;9.38;;
39524;SDS011;25203;50.754;6.978;2023-06-22T03:57:36;18.65;;;11.35;;
39524;SDS011;25203;50.754;6.978;2023-06-22T03:59:36;10.77;;;9.68;;
39524;SDS011;25203;50.754;6.978;2023-06-22T04:01:37;15.70;;;9.75;;
39524;SDS011;25203;50.754;6.978;2023-06-22T04:03:38;15.18;;;9.68;;
39524;SDS011;25203;50.754;6.978;2023-06-22T04:05:39;15.52;;;9.52;;
39524;SDS011;25203;50.754;6.978;2023-06-22T04:07:40;12.13;;;9.00;;
39524;SDS011;25203;50.754;6.978;2023-06-22T04:09:41;12.57;;;10.00;;
39524;SDS011;25203;50.754;6.978;2023-06-22T04:11:41;19.15;;;11.68;;
39524;SDS011;25203;50.754;6.978;2023-06-22T04:13:42;14.10;;;10.40;;
39524;SDS011;25203;50.754;6.978;2023-06-22T04:15:43;15.30;;;10.13;;
39524;SDS011;25203;50.754;6.978;2023-06-22T04:17:43;14.55;;;9.50;;
39524;SDS011;25203;50.754;6.978;2023-06-22T04:19:44;12.70;;;9.90;;
39524;SDS011;25203;50.754;6.978;2023-06-22T04:21:44;15.60;;;10.93;;
39524;SDS011;25203;50.754;6.978;2023-06-22T04:23:45;13.25;;;10.50;;
39524;SDS011;25203;50.754;6.978;2023-06-22T04:25:46;14.05;;;11.88;;
39524;SDS011;25203;50.754;6.978;2023-06-22T04:27:47;10.75;;;9.75;;
39524;SDS011;25203;50.754;6.978;2023-06-22T04:29:48;10.65;;;9.55;;
39524;SDS011;25203;50.754;6.978;2023-06-22T04:31:49;13.48;;;11.10;;
39524;SDS011;25203;50.754;6.978;2023-06-22T04:33:50;13.15;;;10.82;;
39524;SDS011;25203;50.754;6.978;2023-06-22T04:35:51;12.60;;;10.57;;
39524;SDS011;25203;50.754;6.978;2023-06-22T04:37:52;11.57;;;10.48;;
39524;SDS011;25203;50.754;6.978;2023-06-22T04:39:54;14.57;;;11.65;;
39524;SDS011;25203;50.754;6.978;2023-06-22T04:41:55;12.25;;;11.02;;
39524;SDS011;25203;50.754;6.978;2023-06-22T04:44:00;22.10;;;12.68;;
39524;SDS011;25203;50.754;6.978;2023-06-22T04:46:00;12.68;;;11.48;;
39524;SDS011;25203;50.754;6.978;2023-06-22T04:48:04;21.13;;;12.57;;
39524;SDS011;25203;50.754;6.978;2023-06-22T04:50:05;14.38;;;13.07;;
39524;SDS011;25203;50.754;6.978;2023-06-22T04:52:06;15.35;;;12.68;;
39524;SDS011;25203;50.754;6.978;2023-06-22T04:54:08;23.35;;;13.68;;
39524;SDS011;25203;50.754;6.978;2023-06-22T04:56:09;15.32;;;11.25;;
39524;SDS011;25203;50.754;6.978;2023-06-22T04:58:10;14.43;;;12.80;;
39524;SDS011;25203;50.754;6.978;2023-06-22T05:00:13;13.20;;;11.90;;
39524;SDS011;25203;50.754;6.978;2023-06-22T05:02:17;13.27;;;12.07;;
39524;SDS011;25203;50.754;6.978;2023-06-22T05:04:17;13.95;;;12.52;;
39524;SDS011;25203;50.754;6.978;2023-06-22T05:06:18;21.45;;;11.15;;
39524;SDS011;25203;50.754;6.978;2023-06-22T05:08:19;17.80;;;11.25;;
39524;SDS011;25203;50.754;6.978;2023-06-22T05:10:19;14.32;;;10.48;;
39524;SDS011;25203;50.754;6.978;2023-06-22T05:12:20;20.63;;;10.77;;
39524;SDS011;25203;50.754;6.978;2023-06-22T05:14:21;17.58;;;9.55;;
39524;SDS011;25203;50.754;6.978;2023-06-22T05:16:21;10.88;;;9.77;;
39524;SDS011;25203;50.754;6.978;2023-06-22T05:18:24;20.25;;;10.82;;
39524;SDS011;25203;50.754;6.978;2023-06-22T05:20:24;12.43;;;10.23;;
39524;SDS011;25203;50.754;6.978;2023-06-22T05:22:25;17.88;;;10.07;;
39524;SDS011;25203;50.754;6.978;2023-06-22T05:24:25;15.45;;;10.60;;
39524;SDS011;25203;50.754;6.978;2023-06-22T05:26:26;12.63;;;10.35;;
39524;SDS011;25203;50.754;6.978;2023-06-22T05:28:27;10.73;;;9.63;;
39524;SDS011;25203;50.754;6.978;2023-06-22T05:30:27;16.00;;;10.77;;
39524;SDS011;25203;50.754;6.978;2023-06-22T05:32:28;15.93;;;10.40;;
39524;SDS011;25203;50.754;6.978;2023-06-22T05:34:29;20.65;;;10.88;;
39524;SDS011;25203;50.754;6.978;2023-06-22T05:36:29;15.32;;;10.77;;
39524;SDS011;25203;50.754;6.978;2023-06-22T05:38:30;11.55;;;9.30;;
39524;SDS011;25203;50.754;6.978;2023-06-22T05:40:31;14.82;;;8.82;;
39524;SDS011;25203;50.754;6.978;2023-06-22T05:42:31;12.63;;;8.82;;
39524;SDS011;25203;50.754;6.978;2023-06-22T05:44:32;19.90;;;10.40;;
39524;SDS011;25203;50.754;6.978;2023-06-22T05:46:33;12.85;;;9.15;;
39524;SDS011;25203;50.754;6.978;2023-06-22T05:48:34;11.25;;;9.68;;
39524;SDS011;25203;50.754;6.978;2023-06-22T05:50:34;12.55;;;10.05;;
39524;SDS011;25203;50.754;6.978;2023-06-22T05:52:36;16.50;;;9.93;;
39524;SDS011;25203;50.754;6.978;2023-06-22T05:54:37;16.40;;;9.93;;
39524;SDS011;25203;50.754;6.978;2023-06-22T05:56:38;11.75;;;8.23;;
39524;SDS011;25203;50.754;6.978;2023-06-22T05:58:39;8.63;;;7.38;;
39524;SDS011;25203;50.754;6.978;2023-06-22T06:00:40;9.45;;;7.68;;
39524;SDS011;25203;50.754;6.978;2023-06-22T06:02:42;12.35;;;9.88;;
39524;SDS011;25203;50.754;6.978;2023-06-22T06:04:43;12.40;;;10.93;;
39524;SDS011;25203;50.754;6.978;2023-06-22T06:06:44;11.70;;;10.50;;
39524;SDS011;25203;50.754;6.978;2023-06-22T06:08:45;12.32;;;9.88;;
39524;SDS011;25203;50.754;6.978;2023-06-22T06:10:45;11.18;;;10.07;;
39524;SDS011;25203;50.754;6.978;2023-06-22T06:12:46;12.88;;;10.02;;
39524;SDS011;25203;50.754;6.978;2023-06-22T06:14:46;11.75;;;8.35;;
39524;SDS011;25203;50.754;6.978;2023-06-22T06:16:48;13.90;;;10.27;;
39524;SDS011;25203;50.754;6.978;2023-06-22T06:18:49;12.13;;;10.13;;
39524;SDS011;25203;50.754;6.978;2023-06-22T06:20:50;10.82;;;9.75;;
39524;SDS011;25203;50.754;6.978;2023-06-22T06:22:51;16.88;;;10.50;;
39524;SDS011;25203;50.754;6.978;2023-06-22T06:24:52;10.43;;;9.32;;
39524;SDS011;25203;50.754;6.978;2023-06-22T06:26:52;12.98;;;10.18;;
39524;SDS011;25203;50.754;6.978;2023-06-22T06:28:53;12.32;;;10.48;;
39524;SDS011;25203;50.754;6.978;2023-06-22T06:30:55;12.38;;;11.05;;
39524;SDS011;25203;50.754;6.978;2023-06-22T06:32:55;14.60;;;10.35;;
39524;SDS011;25203;50.754;6.978;2023-06-22T06:34:56;15.57;;;11.00;;
39524;SDS011;25203;50.754;6.978;2023-06-22T06:36:56;14.02;;;9.98;;
39524;SDS011;25203;50.754;6.978;2023-06-22T06:38:57;14.95;;;10.25;;
39524;SDS011;25203;50.754;6.978;2023-06-22T06:40:58;14.32;;;10.50;;
39524;SDS011;25203;50.754;6.978;2023-06-22T06:42:59;14.95;;;10.48;;
39524;SDS011;25203;50.754;6.978;2023-06-22T06:45:00;16.00;;;8.98;;
39524;SDS011;25203;50.754;6.978;2023-06-22T06:47:00;13.68;;;9.70;;
39524;SDS011;25203;50.754;6.978;2023-06-22T06:49:01;11.68;;;8.85;;
39524;SDS011;25203;50.754;6.978;2023-06-22T06:51:01;10.68;;;8.57;;
39524;SDS011;25203;50.754;6.978;2023-06-22T06:53:02;14.63;;;10.93;;
39524;SDS011;25203;50.754;6.978;2023-06-22T06:55:03;11.90;;;9.80;;
39524;SDS011;25203;50.754;6.978;2023-06-22T06:57:07;10.75;;;9.73;;
39524;SDS011;25203;50.754;6.978;2023-06-22T06:59:10;15.23;;;11.35;;
39524;SDS011;25203;50.754;6.978;2023-06-22T07:01:11;10.93;;;9.77;;
39524;SDS011;25203;50.754;6.978;2023-06-22T07:03:12;12.45;;;10.73;;
39524;SDS011;25203;50.754;6.978;2023-06-22T07:05:13;12.07;;;10.77;;
39524;SDS011;25203;50.754;6.978;2023-06-22T07:07:14;12.23;;;11.02;;
39524;SDS011;25203;50.754;6.978;2023-06-22T07:09:14;12.85;;;11.30;;
39524;SDS011;25203;50.754;6.978;2023-06-22T07:11:15;12.95;;;11.48;;
39524;SDS011;25203;50.754;6.978;2023-06-22T07:13:15;12.40;;;10.77;;
39524;SDS011;25203;50.754;6.978;2023-06-22T07:15:16;12.13;;;10.30;;
39524;SDS011;25203;50.754;6.978;2023-06-22T07:17:17;10.38;;;9.38;;
39524;SDS011;25203;50.754;6.978;2023-06-22T07:19:23;12.05;;;10.65;;
39524;SDS011;25203;50.754;6.978;2023-06-22T07:21:25;11.75;;;9.52;;
39524;SDS011;25203;50.754;6.978;2023-06-22T07:23:26;11.77;;;10.57;;
39524;SDS011;25203;50.754;6.978;2023-06-22T07:25:26;11.30;;;9.63;;
39524;SDS011;25203;50.754;6.978;2023-06-22T07:27:27;9.60;;;8.68;;
39524;SDS011;25203;50.754;6.978;2023-06-22T07:29:28;10.27;;;9.25;;
39524;SDS011;25203;50.754;6.978;2023-06-22T07:31:29;9.32;;;8.50;;
39524;SDS011;25203;50.754;6.978;2023-06-22T07:33:30;11.23;;;9.65;;
39524;SDS011;25203;50.754;6.978;2023-06-22T07:35:30;11.75;;;9.48;;
39524;SDS011;25203;50.754;6.978;2023-06-22T07:37:33;11.48;;;8.68;;
39524;SDS011;25203;50.754;6.978;2023-06-22T07:39:35;10.23;;;9.23;;
39524;SDS011;25203;50.754;6.978;2023-06-22T07:41:38;11.55;;;8.57;;
39524;SDS011;25203;50.754;6.978;2023-06-22T07:43:40;11.10;;;10.00;;
39524;SDS011;25203;50.754;6.978;2023-06-22T07:45:43;9.68;;;8.68;;
39524;SDS011;25203;50.754;6.978;2023-06-22T07:47:52;11.10;;;9.75;;
39524;SDS011;25203;50.754;6.978;2023-06-22T07:49:52;11.43;;;9.65;;
39524;SDS011;25203;50.754;6.978;2023-06-22T07:51:54;9.80;;;8.80;;
39524;SDS011;25203;50.754;6.978;2023-06-22T07:53:55;9.85;;;8.70;;
39524;SDS011;25203;50.754;6.978;2023-06-22T07:55:56;9.57;;;8.55;;
39524;SDS011;25203;50.754;6.978;2023-06-22T07:57:56;12.68;;;9.27;;
39524;SDS011;25203;50.754;6.978;2023-06-22T07:59:58;9.15;;;7.93;;
39524;SDS011;25203;50.754;6.978;2023-06-22T08:02:04;8.75;;;7.95;;
39524;SDS011;25203;50.754;6.978;2023-06-22T08:04:05;9.13;;;7.72;;
39524;SDS011;25203;50.754;6.978;2023-06-22T08:06:06;9.27;;;8.00;;
39524;SDS011;25203;50.754;6.978;2023-06-22T08:08:09;9.27;;;8.38;;
39524;SDS011;25203;50.754;6.978;2023-06-22T08:10:12;11.40;;;10.13;;
39524;SDS011;25203;50.754;6.978;2023-06-22T08:12:13;7.78;;;7.07;;
39524;SDS011;25203;50.754;6.978;2023-06-22T08:14:14;10.40;;;7.60;;
39524;SDS011;25203;50.754;6.978;2023-06-22T08:16:15;11.27;;;7.45;;
39524;SDS011;25203;50.754;6.978;2023-06-22T08:18:15;6.85;;;6.18;;
39524;SDS011;25203;50.754;6.978;2023-06-22T08:20:16;9.38;;;6.78;;
39524;SDS011;25203;50.754;6.978;2023-06-22T08:22:17;7.55;;;6.80;;
39524;SDS011;25203;50.754;6.978;2023-06-22T08:24:18;8.05;;;7.25;;
39524;SDS011;25203;50.754;6.978;2023-06-22T08:26:18;7.75;;;6.53;;
39524;SDS011;25203;50.754;6.978;2023-06-22T08:28:19;7.38;;;6.68;;
39524;SDS011;25203;50.754;6.978;2023-06-22T08:30:20;6.97;;;6.38;;
39524;SDS011;25203;50.754;6.978;2023-06-22T08:32:20;9.00;;;6.88;;
39524;SDS011;25203;50.754;6.978;2023-06-22T08:34:21;7.63;;;6.93;;
39524;SDS011;25203;50.754;6.978;2023-06-22T08:36:27;7.85;;;6.63;;
39524;SDS011;25203;50.754;6.978;2023-06-22T08:38:33;6.85;;;6.22;;
39524;SDS011;25203;50.754;6.978;2023-06-22T08:40:33;9.13;;;6.72;;
39524;SDS011;25203;50.754;6.978;2023-06-22T08:42:34;7.60;;;6.90;;
39524;SDS011;25203;50.754;6.978;2023-06-22T08:44:38;8.50;;;6.97;;
39524;SDS011;25203;50.754;6.978;2023-06-22T08:46:38;7.45;;;6.85;;
39524;SDS011;25203;50.754;6.978;2023-06-22T08:48:40;7.93;;;6.85;;
39524;SDS011;25203;50.754;6.978;2023-06-22T08:50:41;8.30;;;7.00;;
39524;SDS011;25203;50.754;6.978;2023-06-22T08:52:41;8.10;;;7.40;;
39524;SDS011;25203;50.754;6.978;2023-06-22T08:54:42;7.53;;;6.93;;
39524;SDS011;25203;50.754;6.978;2023-06-22T08:56:43;9.43;;;7.30;;
39524;SDS011;25203;50.754;6.978;2023-06-22T08:58:44;8.25;;;7.45;;
39524;SDS011;25203;50.754;6.978;2023-06-22T09:00:44;9.90;;;8.20;;
39524;SDS011;25203;50.754;6.978;2023-06-22T09:02:45;8.75;;;7.93;;
39524;SDS011;25203;50.754;6.978;2023-06-22T09:04:47;8.23;;;7.18;;
39524;SDS011;25203;50.754;6.978;2023-06-22T09:06:48;8.43;;;7.70;;
39524;SDS011;25203;50.754;6.978;2023-06-22T09:08:50;8.15;;;7.25;;
39524;SDS011;25203;50.754;6.978;2023-06-22T09:10:50;9.48;;;7.22;;
39524;SDS011;25203;50.754;6.978;2023-06-22T09:12:51;10.80;;;7.70;;
39524;SDS011;25203;50.754;6.978;2023-06-22T09:14:51;7.78;;;7.15;;
39524;SDS011;25203;50.754;6.978;2023-06-22T09:16:52;8.02;;;7.22;;
39524;SDS011;25203;50.754;6.978;2023-06-22T09:18:53;10.13;;;6.80;;
39524;SDS011;25203;50.754;6.978;2023-06-22T09:20:53;8.48;;;7.32;;
39524;SDS011;25203;50.754;6.978;2023-06-22T09:22:54;7.93;;;7.13;;
39524;SDS011;25203;50.754;6.978;2023-06-22T09:24:55;8.32;;;7.18;;
39524;SDS011;25203;50.754;6.978;2023-06-22T09:26:56;9.50;;;7.32;;
39524;SDS011;25203;50.754;6.978;2023-06-22T09:28:56;7.55;;;6.85;;
39524;SDS011;25203;50.754;6.978;2023-06-22T09:30:57;7.30;;;6.38;;
39524;SDS011;25203;50.754;6.978;2023-06-22T09:32:59;6.80;;;6.18;;
39524;SDS011;25203;50.754;6.978;2023-06-22T09:35:04;6.97;;;6.43;;
39524;SDS011;25203;50.754;6.978;2023-06-22T09:37:06;7.13;;;6.60;;
39524;SDS011;25203;50.754;6.978;2023-06-22T09:39:06;7.05;;;6.45;;
39524;SDS011;25203;50.754;6.978;2023-06-22T09:41:07;7.97;;;7.00;;
39524;SDS011;25203;50.754;6.978;2023-06-22T09:43:07;7.45;;;6.78;;
39524;SDS011;25203;50.754;6.978;2023-06-22T09:45:08;7.55;;;6.82;;
39524;SDS011;25203;50.754;6.978;2023-06-22T09:47:09;8.13;;;7.30;;
39524;SDS011;25203;50.754;6.978;2023-06-22T09:49:10;10.82;;;7.20;;
39524;SDS011;25203;50.754;6.978;2023-06-22T09:51:11;9.55;;;7.55;;
39524;SDS011;25203;50.754;6.978;2023-06-22T09:53:11;8.70;;;7.80;;
39524;SDS011;25203;50.754;6.978;2023-06-22T09:55:12;9.40;;;7.57;;
39524;SDS011;25203;50.754;6.978;2023-06-22T09:57:13;11.05;;;8.50;;
39524;SDS011;25203;50.754;6.978;2023-06-22T09:59:13;8.93;;;8.10;;
39524;SDS011;25203;50.754;6.978;2023-06-22T10:01:14;10.15;;;8.02;;
39524;SDS011;25203;50.754;6.978;2023-06-22T10:03:14;9.23;;;8.15;;
39524;SDS011;25203;50.754;6.978;2023-06-22T10:05:15;8.57;;;7.78;;
39524;SDS011;25203;50.754;6.978;2023-06-22T10:07:16;9.27;;;7.70;;
39524;SDS011;25203;50.754;6.978;2023-06-22T10:09:16;8.95;;;8.15;;
39524;SDS011;25203;50.754;6.978;2023-06-22T10:11:17;9.40;;;8.45;;
39524;SDS011;25203;50.754;6.978;2023-06-22T10:13:17;10.55;;;8.35;;
39524;SDS011;25203;50.754;6.978;2023-06-22T10:15:19;9.95;;;8.88;;
39524;SDS011;25203;50.754;6.978;2023-06-22T10:17:19;9.23;;;8.32;;
39524;SDS011;25203;50.754;6.978;2023-06-22T10:19:20;10.50;;;9.27;;
39524;SDS011;25203;50.754;6.978;2023-06-22T10:21:20;9.80;;;8.75;;
39524;SDS011;25203;50.754;6.978;2023-06-22T10:23:21;9.68;;;8.77;;
39524;SDS011;25203;50.754;6.978;2023-06-22T10:25:22;10.93;;;9.73;;
39524;SDS011;25203;50.754;6.978;2023-06-22T10:27:22;10.50;;;9.52;;
39524;SDS011;25203;50.754;6.978;2023-06-22T10:29:23;12.18;;;10.27;;
39524;SDS011;25203;50.754;6.978;2023-06-22T10:31:24;12.93;;;10.10;;
39524;SDS011;25203;50.754;6.978;2023-06-22T10:33:24;12.60;;;11.50;;
39524;SDS011;25203;50.754;6.978;2023-06-22T10:35:25;13.55;;;12.23;;
39524;SDS011;25203;50.754;6.978;2023-06-22T10:37:25;14.07;;;12.70;;
39524;SDS011;25203;50.754;6.978;2023-06-22T10:39:26;15.68;;;14.23;;
39524;SDS011;25203;50.754;6.978;2023-06-22T10:41:26;20.55;;;16.23;;
39524;SDS011;25203;50.754;6.978;2023-06-22T10:43:30;20.77;;;17.50;;
39524;SDS011;25203;50.754;6.978;2023-06-22T10:45:30;22.40;;;20.10;;
39524;SDS011;25203;50.754;6.978;2023-06-22T10:47:31;35.08;;;23.35;;
39524;SDS011;25203;50.754;6.978;2023-06-22T10:49:31;29.63;;;24.40;;
39524;SDS011;25203;50.754;6.978;2023-06-22T10:51:32;31.13;;;25.52;;
39524;SDS011;25203;50.754;6.978;2023-06-22T10:53:33;30.05;;;26.83;;
39524;SDS011;25203;50.754;6.978;2023-06-22T10:55:34;37.88;;;27.27;;
39524;SDS011;25203;50.754;6.978;2023-06-22T10:57:34;41.65;;;29.33;;
39524;SDS011;25203;50.754;6.978;2023-06-22T10:59:36;37.53;;;31.02;;
39524;SDS011;25203;50.754;6.978;2023-06-22T11:01:37;34.75;;;31.27;;
39524;SDS011;25203;50.754;6.978;2023-06-22T11:03:37;53.40;;;37.08;;
39524;SDS011;25203;50.754;6.978;2023-06-22T11:05:38;47.65;;;36.65;;
39524;SDS011;25203;50.754;6.978;2023-06-22T11:07:42;43.97;;;36.42;;
39524;SDS011;25203;50.754;6.978;2023-06-22T11:09:44;43.83;;;36.35;;
39524;SDS011;25203;50.754;6.978;2023-06-22T11:11:44;40.38;;;36.03;;
39524;SDS011;25203;50.754;6.978;2023-06-22T11:13:45;33.85;;;30.42;;
39524;SDS011;25203;50.754;6.978;2023-06-22T11:15:46;34.25;;;30.75;;
39524;SDS011;25203;50.754;6.978;2023-06-22T11:17:46;35.85;;;32.08;;
39524;SDS011;25203;50.754;6.978;2023-06-22T11:19:47;37.40;;;33.45;;
39524;SDS011;25203;50.754;6.978;2023-06-22T11:21:47;54.08;;;38.65;;
39524;SDS011;25203;50.754;6.978;2023-06-22T11:23:48;37.95;;;32.35;;
39524;SDS011;25203;50.754;6.978;2023-06-22T11:25:50;31.05;;;27.80;;
39524;SDS011;25203;50.754;6.978;2023-06-22T11:27:51;37.88;;;31.85;;
39524;SDS011;25203;50.754;6.978;2023-06-22T11:29:53;29.15;;;26.02;;
39524;SDS011;25203;50.754;6.978;2023-06-22T11:31:54;26.50;;;23.77;;
39524;SDS011;25203;50.754;6.978;2023-06-22T11:33:54;20.70;;;18.52;;
39524;SDS011;25203;50.754;6.978;2023-06-22T11:35:55;19.15;;;17.20;;
39524;SDS011;25203;50.754;6.978;2023-06-22T11:37:56;17.35;;;15.73;;
39524;SDS011;25203;50.754;6.978;2023-06-22T11:39:58;16.83;;;15.23;;
39524;SDS011;25203;50.754;6.978;2023-06-22T11:41:58;16.05;;;12.75;;
39524;SDS011;25203;50.754;6.978;2023-06-22T11:43:59;9.90;;;9.07;;
39524;SDS011;25203;50.754;6.978;2023-06-22T11:46:01;9.23;;;8.23;;
39524;SDS011;25203;50.754;6.978;2023-06-22T11:48:03;8.65;;;7.85;;
39524;SDS011;25203;50.754;6.978;2023-06-22T11:50:04;9.40;;;8.38;;
39524;SDS011;25203;50.754;6.978;2023-06-22T11:52:05;10.40;;;9.43;;
39524;SDS011;25203;50.754;6.978;2023-06-22T11:54:06;12.65;;;10.68;;
39524;SDS011;25203;50.754;6.978;2023-06-22T11:56:07;11.50;;;10.38;;
39524;SDS011;25203;50.754;6.978;2023-06-22T11:58:07;11.98;;;10.82;;
39524;SDS011;25203;50.754;6.978;2023-06-22T12:00:08;12.82;;;11.60;;
39524;SDS011;25203;50.754;6.978;2023-06-22T12:02:16;13.65;;;12.25;;
39524;SDS011;25203;50.754;6.978;2023-06-22T12:04:17;14.10;;;12.75;;
39524;SDS011;25203;50.754;6.978;2023-06-22T12:06:18;15.45;;;13.68;;
39524;SDS011;25203;50.754;6.978;2023-06-22T12:08:18;15.88;;;14.25;;
39524;SDS011;25203;50.754;6.978;2023-06-22T12:10:19;15.10;;;13.60;;